WetterOnline ( https://www.wetteronline.de )

Wetter aktuell Putgarten

Aktuelles Wetter: Kap Arkona/Rügen (42m)

6-stündlich | Neueste Meldungen
Ortszeit Temperatur Wetter
Sa, 25.05. 8:00 14.5° C bewölkt
Sa, 25.05. 2:00 13.7° C wolkenlos
Fr, 24.05. 20:00 15.3° C leicht bewölkt
Fr, 24.05. 14:00 16.7° C wolkenlos
Fr, 24.05. 8:00 14.1° C wolkig
Fr, 24.05. 2:00 12.1° C wolkig
Do, 23.05. 20:00 14.9° C leicht bewölkt
Do, 23.05. 14:00 13.4° C leichter Regen
Ortszeit Temperatur Wetter
Sa, 25.05. 10:00 13.8° C bewölkt
Sa, 25.05. 9:50 13.8° C bewölkt
Sa, 25.05. 9:40 14.4° C bewölkt
Sa, 25.05. 9:30 15.6° C leicht bewölkt
Sa, 25.05. 9:20 15.6° C leicht bewölkt
Sa, 25.05. 9:10 15.7° C fast wolkenlos
Sa, 25.05. 9:00 15.6° C leicht bewölkt
Sa, 25.05. 8:30 14.6° C leicht bewölkt
Sa, 25.05. 8:00 14.5° C bewölkt
Sa, 25.05. 7:30 13.9° C bedeckt
Sa, 25.05. 7:00 13.5° C bewölkt
Ortszeit Relative Feuchte Sichtweite
Sa, 25.05. 8:00 88% 21 km
Sa, 25.05. 2:00 93% 18 km
Fr, 24.05. 20:00 79% 40 km
Fr, 24.05. 14:00 78% 24 km
Fr, 24.05. 8:00 90% 9 km
Fr, 24.05. 2:00 96% 6 km
Do, 23.05. 20:00 90% 17 km
Do, 23.05. 14:00 97% 8 km
Ortszeit Relative Feuchte Sichtweite
Sa, 25.05. 10:00 87% 40 km
Sa, 25.05. 9:50 87% -
Sa, 25.05. 9:40 87% -
Sa, 25.05. 9:30 82% 40 km
Sa, 25.05. 9:20 82% -
Sa, 25.05. 9:10 82% -
Sa, 25.05. 9:00 82% 35 km
Sa, 25.05. 8:30 87% 22 km
Sa, 25.05. 8:00 88% 21 km
Sa, 25.05. 7:30 94% 15 km
Sa, 25.05. 7:00 92% 18 km
Ortszeit Niederschlagsmenge Niederschlagsart
Sa, 25.05. 8:00 0.1 l/m2 in 12 Std. Regen
Sa, 25.05. 2:00 0.0 l/m2 in 6 Std. -
Fr, 24.05. 20:00 0.0 l/m2 in 12 Std. -
Fr, 24.05. 14:00 0.0 l/m2 in 6 Std. -
Fr, 24.05. 8:00 0.0 l/m2 in 12 Std. -
Fr, 24.05. 2:00 0.0 l/m2 in 6 Std. -
Do, 23.05. 20:00 5 l/m2 in 12 Std. Regen
Do, 23.05. 14:00 4 l/m2 in 6 Std. Regen
Ortszeit Niederschlagsmenge Niederschlagsart
Sa, 25.05. 10:00 0.0 l/m2 in 1 Std. -
Sa, 25.05. 9:50 keine Meldung -
Sa, 25.05. 9:40 keine Meldung -
Sa, 25.05. 9:30 0.0 l/m2 in 30 Min -
Sa, 25.05. 9:20 keine Meldung -
Sa, 25.05. 9:10 keine Meldung -
Sa, 25.05. 9:00 0.0 l/m2 in 1 Std. -
Sa, 25.05. 8:30 0.0 l/m2 in 30 Min -
Sa, 25.05. 8:00 0.0 l/m2 in 1 Std. Regen
Sa, 25.05. 7:30 0.0 l/m2 in 30 Min -
Sa, 25.05. 7:00 0.1 l/m2 in 1 Std. Regen
Ortszeit Stärke Spitze Richtung
km/h Bft. km/h Grad Sektor
Sa, 25.05. 8:00 31 5 41 70° O
Sa, 25.05. 2:00 20 4 26 60° NO
Fr, 24.05. 20:00 7 2 14 20° N
Fr, 24.05. 14:00 7 2 18 40° NO
Fr, 24.05. 8:00 11 2 22 300° NW
Fr, 24.05. 2:00 19 3 26 250° W
Do, 23.05. 20:00 18 3 43 260° W
Do, 23.05. 14:00 22 4 36 260° W
Ortszeit Stärke Spitze Richtung
km/h Bft. km/h Grad Sektor
Sa, 25.05. 10:00 7 2 36 70° O
Sa, 25.05. 9:50 7 2 - 70° O
Sa, 25.05. 9:40 7 2 - 80° O
Sa, 25.05. 9:30 15 3 33 90° O
Sa, 25.05. 9:20 15 3 - 90° O
Sa, 25.05. 9:10 17 3 - 90° O
Sa, 25.05. 9:00 28 4 41 80° O
Sa, 25.05. 8:30 31 5 41 70° O
Sa, 25.05. 8:00 31 5 41 70° O
Sa, 25.05. 7:30 30 5 35 70° O
Sa, 25.05. 7:00 28 4 41 70° O
Ortszeit Untergrenze Bedeckung Gattung
total tief tief mittel hoch
Sa, 25.05. 8:00 510 m 7/8 6/8 - - -
Sa, 25.05. 2:00 - 0/8 0/8 - - -
Fr, 24.05. 20:00 10500 m 4/8 0/8 - - -
Fr, 24.05. 14:00 - 0/8 0/8 - - -
Fr, 24.05. 8:00 6900 m 8/8 3/8 - - -
Fr, 24.05. 2:00 8100 m 8/8 0/8 - - -
Do, 23.05. 20:00 10500 m 7/8 0/8 - - -
Do, 23.05. 14:00 90 m 8/8 8/8 - - -
Ortszeit Bedeckungsgrad in Achtel und Wolkenuntergrenze
Sa, 25.05. 10:00 5(60m) 7(150m) 7(1410m)
Sa, 25.05. 9:50 5(60m) 7(150m) 7(1410m)
Sa, 25.05. 9:40 7
Sa, 25.05. 9:30 4(1260m)
Sa, 25.05. 9:20 4(1260m)
Sa, 25.05. 9:10 1
Sa, 25.05. 9:00 2(1500m)
Sa, 25.05. 8:30 1(1500m)
Sa, 25.05. 8:00 6(510m) 6(660m) 7(3600m)
Sa, 25.05. 7:30 3(450m) 8(840m) 8(1170m)
Sa, 25.05. 7:00 6(360m) 7(510m)
Ortszeit Luftdruck NN (hPa) Tendenz (hPa in 3 Std.)
Sa, 25.05. 8:00 1018 - 0,9
Sa, 25.05. 2:00 1019 - 1,2
Fr, 24.05. 20:00 1021 - 0,8
Fr, 24.05. 14:00 1022 + 0,2
Fr, 24.05. 8:00 1021 + 1,0
Fr, 24.05. 2:00 1018 + 1,1
Do, 23.05. 20:00 1015 + 1,1
Do, 23.05. 14:00 1013 + 1,7
Ortszeit Luftdruck NN (hPa) Tendenz (hPa in 3 Std.)
Sa, 25.05. 10:00 1019 + 0,3
Sa, 25.05. 9:50 1019 keine Meldung
Sa, 25.05. 9:40 1019 keine Meldung
Sa, 25.05. 9:30 1019 0,0
Sa, 25.05. 9:20 1019 keine Meldung
Sa, 25.05. 9:10 1018 keine Meldung
Sa, 25.05. 9:00 1019 - 0,2
Sa, 25.05. 8:30 1019 - 0,5
Sa, 25.05. 8:00 1018 - 0,9
Sa, 25.05. 7:30 1019 - 0,9
Sa, 25.05. 7:00 1018 - 1,1
Ortszeit Schneehöhe (cm)
Sa, 25.05. 8:00 0
Sa, 25.05. 2:00 0
Fr, 24.05. 20:00 0
Fr, 24.05. 14:00 0
Fr, 24.05. 8:00 0
Fr, 24.05. 2:00 0
Do, 23.05. 20:00 0
Do, 23.05. 14:00 0
Ortszeit Schneehöhe (cm)
Sa, 25.05. 10:00 0
Sa, 25.05. 9:50 0
Sa, 25.05. 9:40 -
Sa, 25.05. 9:30 0
Sa, 25.05. 9:20 0
Sa, 25.05. 9:10 -
Sa, 25.05. 9:00 0
Sa, 25.05. 8:30 0
Sa, 25.05. 8:00 0
Sa, 25.05. 7:30 0
Sa, 25.05. 7:00 0
Link zu dieser Seite / Seite empfehlen

Das Wetter in ...